sensor_id;sensor_type;location;lat;lon;timestamp;pressure;altitude;pressure_sealevel;temperature;humidity
40946;BME280;55635;50.264;11.918;2023-02-23T00:01:23;95248.63;;;10.22;83.00
40946;BME280;55635;50.264;11.918;2023-02-23T00:04:04;95256.81;;;10.06;83.26
40946;BME280;55635;50.264;11.918;2023-02-23T00:06:45;95246.75;;;9.74;83.95
40946;BME280;55635;50.264;11.918;2023-02-23T00:09:26;95260.97;;;9.94;84.06
40946;BME280;55635;50.264;11.918;2023-02-23T00:12:15;95253.72;;;9.81;84.75
40946;BME280;55635;50.264;11.918;2023-02-23T00:14:56;95260.16;;;9.72;85.28
40946;BME280;55635;50.264;11.918;2023-02-23T00:17:39;95260.72;;;9.47;87.19
40946;BME280;55635;50.264;11.918;2023-02-23T00:20:21;95251.34;;;9.29;87.20
40946;BME280;55635;50.264;11.918;2023-02-23T00:23:07;95253.38;;;9.27;87.87
40946;BME280;55635;50.264;11.918;2023-02-23T00:25:48;95257.31;;;9.53;86.36
40946;BME280;55635;50.264;11.918;2023-02-23T00:28:29;95258.91;;;9.47;87.42
40946;BME280;55635;50.264;11.918;2023-02-23T00:31:10;95244.09;;;9.53;86.39
40946;BME280;55635;50.264;11.918;2023-02-23T00:34:02;95247.94;;;9.93;84.74
40946;BME280;55635;50.264;11.918;2023-02-23T00:36:43;95242.66;;;9.71;85.58
40946;BME280;55635;50.264;11.918;2023-02-23T00:39:27;95237.84;;;9.60;85.58
40946;BME280;55635;50.264;11.918;2023-02-23T00:42:09;95252.56;;;9.48;86.25
40946;BME280;55635;50.264;11.918;2023-02-23T00:44:50;95238.50;;;9.62;85.61
40946;BME280;55635;50.264;11.918;2023-02-23T00:47:31;95244.34;;;9.58;86.40
40946;BME280;55635;50.264;11.918;2023-02-23T00:50:15;95231.00;;;9.45;86.45
40946;BME280;55635;50.264;11.918;2023-02-23T00:52:56;95238.41;;;9.35;87.12
40946;BME280;55635;50.264;11.918;2023-02-23T00:55:40;95247.31;;;9.34;86.85
40946;BME280;55635;50.264;11.918;2023-02-23T00:58:23;95241.75;;;9.43;87.42
40946;BME280;55635;50.264;11.918;2023-02-23T01:01:10;95251.72;;;9.26;87.88
40946;BME280;55635;50.264;11.918;2023-02-23T01:03:51;95247.72;;;9.52;87.25
40946;BME280;55635;50.264;11.918;2023-02-23T01:06:37;95242.59;;;9.65;85.71
40946;BME280;55635;50.264;11.918;2023-02-23T01:09:19;95207.25;;;9.15;87.17
40946;BME280;55635;50.264;11.918;2023-02-23T01:12:07;95233.25;;;9.48;86.47
40946;BME280;55635;50.264;11.918;2023-02-23T01:14:49;95245.97;;;9.38;87.13
40946;BME280;55635;50.264;11.918;2023-02-23T01:17:30;95237.56;;;9.34;87.32
40946;BME280;55635;50.264;11.918;2023-02-23T01:20:14;95242.69;;;9.36;87.60
40946;BME280;55635;50.264;11.918;2023-02-23T01:22:59;95231.06;;;9.15;87.94
40946;BME280;55635;50.264;11.918;2023-02-23T01:25:43;95221.84;;;9.11;88.47
40946;BME280;55635;50.264;11.918;2023-02-23T01:28:24;95229.09;;;9.39;87.58
40946;BME280;55635;50.264;11.918;2023-02-23T01:31:08;95230.09;;;9.38;86.93
40946;BME280;55635;50.264;11.918;2023-02-23T01:33:59;95228.06;;;9.40;87.07
40946;BME280;55635;50.264;11.918;2023-02-23T01:36:41;95230.84;;;9.53;86.58
40946;BME280;55635;50.264;11.918;2023-02-23T01:39:23;95227.06;;;9.41;87.14
40946;BME280;55635;50.264;11.918;2023-02-23T01:42:11;95215.72;;;9.47;86.24
40946;BME280;55635;50.264;11.918;2023-02-23T01:45:29;95226.19;;;9.76;84.99
40946;BME280;55635;50.264;11.918;2023-02-23T01:48:14;95217.25;;;9.56;85.58
40946;BME280;55635;50.264;11.918;2023-02-23T01:51:05;95215.41;;;9.77;84.52
40946;BME280;55635;50.264;11.918;2023-02-23T01:54:02;95208.41;;;9.91;83.68
40946;BME280;55635;50.264;11.918;2023-02-23T01:56:47;95203.31;;;9.68;84.21
40946;BME280;55635;50.264;11.918;2023-02-23T01:59:44;95160.16;;;9.68;83.41
40946;BME280;55635;50.264;11.918;2023-02-23T02:02:27;95193.97;;;9.72;83.89
40946;BME280;55635;50.264;11.918;2023-02-23T02:05:14;95200.03;;;9.88;83.21
40946;BME280;55635;50.264;11.918;2023-02-23T02:07:57;95189.13;;;9.76;83.60
40946;BME280;55635;50.264;11.918;2023-02-23T02:10:39;95205.75;;;9.70;84.09
40946;BME280;55635;50.264;11.918;2023-02-23T02:13:27;95205.16;;;9.47;85.23
40946;BME280;55635;50.264;11.918;2023-02-23T02:16:39;95214.69;;;9.26;86.10
40946;BME280;55635;50.264;11.918;2023-02-23T02:19:52;95207.19;;;9.30;86.54
40946;BME280;55635;50.264;11.918;2023-02-23T02:32:15;95203.31;;;9.68;84.33
40946;BME280;55635;50.264;11.918;2023-02-23T02:41:22;95186.97;;;9.86;82.48
40946;BME280;55635;50.264;11.918;2023-02-23T02:44:16;95180.41;;;9.82;82.62
40946;BME280;55635;50.264;11.918;2023-02-23T02:47:05;95183.72;;;9.84;81.73
40946;BME280;55635;50.264;11.918;2023-02-23T02:50:21;95181.28;;;9.89;81.49
40946;BME280;55635;50.264;11.918;2023-02-23T02:53:10;95189.13;;;9.76;82.08
40946;BME280;55635;50.264;11.918;2023-02-23T02:55:59;95187.75;;;9.59;82.78
40946;BME280;55635;50.264;11.918;2023-02-23T02:58:42;95179.19;;;9.57;83.15
40946;BME280;55635;50.264;11.918;2023-02-23T03:01:24;95189.72;;;9.50;83.50
40946;BME280;55635;50.264;11.918;2023-02-23T03:04:24;95190.16;;;9.54;83.49
40946;BME280;55635;50.264;11.918;2023-02-23T03:11:04;95175.97;;;9.61;82.05
40946;BME280;55635;50.264;11.918;2023-02-23T03:17:59;95191.41;;;9.58;82.64
40946;BME280;55635;50.264;11.918;2023-02-23T03:21:06;95183.59;;;9.50;82.49
40946;BME280;55635;50.264;11.918;2023-02-23T03:28:23;95180.75;;;8.94;85.48
40946;BME280;55635;50.264;11.918;2023-02-23T03:34:34;95204.31;;;8.60;89.03
40946;BME280;55635;50.264;11.918;2023-02-23T03:37:50;95203.69;;;8.72;88.46
40946;BME280;55635;50.264;11.918;2023-02-23T03:40:53;95211.22;;;8.90;87.85
40946;BME280;55635;50.264;11.918;2023-02-23T03:43:58;95192.88;;;9.03;86.34
40946;BME280;55635;50.264;11.918;2023-02-23T03:47:00;95197.25;;;8.96;86.54
40946;BME280;55635;50.264;11.918;2023-02-23T03:50:05;95202.16;;;8.99;86.38
40946;BME280;55635;50.264;11.918;2023-02-23T03:53:07;95214.47;;;9.07;85.94
40946;BME280;55635;50.264;11.918;2023-02-23T03:56:09;95213.22;;;9.39;84.79
40946;BME280;55635;50.264;11.918;2023-02-23T03:59:14;95212.00;;;9.41;84.45
40946;BME280;55635;50.264;11.918;2023-02-23T04:02:18;95207.66;;;9.55;83.96
40946;BME280;55635;50.264;11.918;2023-02-23T04:05:21;95213.84;;;9.62;82.98
40946;BME280;55635;50.264;11.918;2023-02-23T04:08:26;95214.22;;;9.59;83.14
40946;BME280;55635;50.264;11.918;2023-02-23T04:11:55;95214.84;;;9.61;83.06
40946;BME280;55635;50.264;11.918;2023-02-23T04:15:03;95207.97;;;9.66;82.58
40946;BME280;55635;50.264;11.918;2023-02-23T04:17:45;95202.34;;;9.76;82.43
40946;BME280;55635;50.264;11.918;2023-02-23T04:20:26;95209.91;;;9.79;82.06
40946;BME280;55635;50.264;11.918;2023-02-23T04:23:07;95199.78;;;9.82;81.76
40946;BME280;55635;50.264;11.918;2023-02-23T04:25:50;95203.25;;;9.83;81.47
40946;BME280;55635;50.264;11.918;2023-02-23T04:28:31;95205.88;;;9.83;81.46
40946;BME280;55635;50.264;11.918;2023-02-23T04:31:12;95213.16;;;9.74;81.98
40946;BME280;55635;50.264;11.918;2023-02-23T04:33:53;95213.25;;;9.66;81.94
40946;BME280;55635;50.264;11.918;2023-02-23T04:36:34;95209.38;;;9.62;81.81
40946;BME280;55635;50.264;11.918;2023-02-23T04:39:16;95197.50;;;9.16;83.72
40946;BME280;55635;50.264;11.918;2023-02-23T04:41:57;95205.22;;;9.17;84.57
40946;BME280;55635;50.264;11.918;2023-02-23T04:44:38;95213.69;;;9.27;84.68
40946;BME280;55635;50.264;11.918;2023-02-23T04:47:19;95211.72;;;9.15;85.08
40946;BME280;55635;50.264;11.918;2023-02-23T04:50:00;95215.97;;;8.95;85.87
40946;BME280;55635;50.264;11.918;2023-02-23T04:52:41;95218.84;;;9.00;86.20
40946;BME280;55635;50.264;11.918;2023-02-23T04:55:24;95227.44;;;8.87;87.78
40946;BME280;55635;50.264;11.918;2023-02-23T04:58:05;95222.94;;;9.02;87.26
40946;BME280;55635;50.264;11.918;2023-02-23T05:00:46;95224.38;;;8.84;87.56
40946;BME280;55635;50.264;11.918;2023-02-23T05:03:27;95227.72;;;8.92;87.24
40946;BME280;55635;50.264;11.918;2023-02-23T05:06:08;95225.72;;;8.94;87.40
40946;BME280;55635;50.264;11.918;2023-02-23T05:08:49;95216.28;;;9.06;86.28
40946;BME280;55635;50.264;11.918;2023-02-23T05:11:30;95221.97;;;9.03;86.41
40946;BME280;55635;50.264;11.918;2023-02-23T05:14:11;95215.72;;;8.90;87.19
40946;BME280;55635;50.264;11.918;2023-02-23T05:16:52;95217.66;;;9.02;86.23
40946;BME280;55635;50.264;11.918;2023-02-23T05:19:33;95224.19;;;9.21;85.85
40946;BME280;55635;50.264;11.918;2023-02-23T05:22:18;95218.34;;;9.25;84.56
40946;BME280;55635;50.264;11.918;2023-02-23T05:24:59;95218.13;;;9.42;84.34
40946;BME280;55635;50.264;11.918;2023-02-23T05:27:40;95207.22;;;9.51;83.47
40946;BME280;55635;50.264;11.918;2023-02-23T05:30:21;95218.00;;;9.50;83.38
40946;BME280;55635;50.264;11.918;2023-02-23T05:33:02;95207.28;;;9.58;82.65
40946;BME280;55635;50.264;11.918;2023-02-23T05:35:43;95224.66;;;9.46;83.10
40946;BME280;55635;50.264;11.918;2023-02-23T05:38:24;95217.25;;;9.56;83.00
40946;BME280;55635;50.264;11.918;2023-02-23T05:41:18;95208.19;;;9.65;81.99
40946;BME280;55635;50.264;11.918;2023-02-23T05:44:00;95212.47;;;9.66;81.65
40946;BME280;55635;50.264;11.918;2023-02-23T05:46:43;95217.03;;;9.78;80.74
40946;BME280;55635;50.264;11.918;2023-02-23T05:49:25;95219.75;;;9.85;79.78
40946;BME280;55635;50.264;11.918;2023-02-23T05:52:06;95195.47;;;9.81;79.74
40946;BME280;55635;50.264;11.918;2023-02-23T05:54:47;95204.91;;;9.63;80.80
40946;BME280;55635;50.264;11.918;2023-02-23T05:57:28;95199.47;;;9.50;81.21
40946;BME280;55635;50.264;11.918;2023-02-23T06:00:11;95214.59;;;9.56;80.93
40946;BME280;55635;50.264;11.918;2023-02-23T06:02:53;95198.66;;;9.49;80.77
40946;BME280;55635;50.264;11.918;2023-02-23T06:05:34;95201.31;;;9.49;79.63
40946;BME280;55635;50.264;11.918;2023-02-23T06:08:15;95223.06;;;9.66;79.72
40946;BME280;55635;50.264;11.918;2023-02-23T06:10:56;95203.25;;;9.62;79.28
40946;BME280;55635;50.264;11.918;2023-02-23T06:13:36;95218.75;;;9.65;79.30
40946;BME280;55635;50.264;11.918;2023-02-23T06:16:17;95219.00;;;9.49;80.87
40946;BME280;55635;50.264;11.918;2023-02-23T06:18:59;95222.22;;;9.08;83.31
40946;BME280;55635;50.264;11.918;2023-02-23T06:21:40;95225.34;;;8.97;83.88
40946;BME280;55635;50.264;11.918;2023-02-23T06:24:21;95225.53;;;8.81;85.48
40946;BME280;55635;50.264;11.918;2023-02-23T06:27:03;95239.97;;;8.64;86.08
40946;BME280;55635;50.264;11.918;2023-02-23T06:29:44;95242.06;;;8.83;85.62
40946;BME280;55635;50.264;11.918;2023-02-23T06:32:26;95246.22;;;9.07;84.13
40946;BME280;55635;50.264;11.918;2023-02-23T06:35:08;95228.41;;;9.15;83.52
40946;BME280;55635;50.264;11.918;2023-02-23T06:37:49;95247.41;;;9.40;83.04
40946;BME280;55635;50.264;11.918;2023-02-23T06:40:31;95237.16;;;9.16;83.20
40946;BME280;55635;50.264;11.918;2023-02-23T06:43:12;95253.91;;;9.38;82.71
40946;BME280;55635;50.264;11.918;2023-02-23T06:45:53;95241.28;;;9.40;82.35
40946;BME280;55635;50.264;11.918;2023-02-23T06:48:34;95263.38;;;9.47;82.24
40946;BME280;55635;50.264;11.918;2023-02-23T06:51:15;95252.19;;;9.51;81.75
40946;BME280;55635;50.264;11.918;2023-02-23T06:53:56;95252.28;;;9.58;81.81
40946;BME280;55635;50.264;11.918;2023-02-23T06:56:37;95257.19;;;9.61;81.00
40946;BME280;55635;50.264;11.918;2023-02-23T06:59:18;95264.19;;;9.47;81.94
40946;BME280;55635;50.264;11.918;2023-02-23T07:01:59;95261.34;;;9.49;81.97
40946;BME280;55635;50.264;11.918;2023-02-23T07:04:41;95269.72;;;9.52;81.63
40946;BME280;55635;50.264;11.918;2023-02-23T07:07:22;95264.31;;;9.60;81.00
40946;BME280;55635;50.264;11.918;2023-02-23T07:10:05;95269.47;;;9.47;81.64
40946;BME280;55635;50.264;11.918;2023-02-23T07:12:46;95278.78;;;9.43;82.28
40946;BME280;55635;50.264;11.918;2023-02-23T07:15:27;95281.63;;;9.42;82.95
40946;BME280;55635;50.264;11.918;2023-02-23T07:18:08;95281.84;;;9.25;83.88
40946;BME280;55635;50.264;11.918;2023-02-23T07:20:49;95278.91;;;9.20;84.10
40946;BME280;55635;50.264;11.918;2023-02-23T07:23:31;95277.53;;;9.24;84.47
40946;BME280;55635;50.264;11.918;2023-02-23T07:26:12;95283.63;;;9.40;84.42
40946;BME280;55635;50.264;11.918;2023-02-23T07:28:55;95277.78;;;9.29;83.81
40946;BME280;55635;50.264;11.918;2023-02-23T07:31:36;95282.66;;;9.26;84.42
40946;BME280;55635;50.264;11.918;2023-02-23T07:34:18;95289.13;;;9.23;84.94
40946;BME280;55635;50.264;11.918;2023-02-23T07:36:59;95276.56;;;9.25;84.92
40946;BME280;55635;50.264;11.918;2023-02-23T07:39:43;95287.22;;;9.32;84.70
40946;BME280;55635;50.264;11.918;2023-02-23T07:42:24;95280.47;;;9.15;85.10
40946;BME280;55635;50.264;11.918;2023-02-23T07:45:07;95277.66;;;9.52;84.22
40946;BME280;55635;50.264;11.918;2023-02-23T07:47:48;95274.84;;;9.54;83.71
40946;BME280;55635;50.264;11.918;2023-02-23T07:50:29;95265.81;;;9.48;84.71
40946;BME280;55635;50.264;11.918;2023-02-23T07:53:10;95288.41;;;9.65;84.08
40946;BME280;55635;50.264;11.918;2023-02-23T07:55:56;95282.41;;;9.57;84.60
40946;BME280;55635;50.264;11.918;2023-02-23T07:58:39;95283.22;;;9.78;84.23
40946;BME280;55635;50.264;11.918;2023-02-23T08:01:21;95272.63;;;9.78;83.47
40946;BME280;55635;50.264;11.918;2023-02-23T08:04:02;95285.47;;;9.96;83.18
40946;BME280;55635;50.264;11.918;2023-02-23T08:06:44;95291.63;;;10.03;82.64
40946;BME280;55635;50.264;11.918;2023-02-23T08:09:25;95288.94;;;10.18;81.76
40946;BME280;55635;50.264;11.918;2023-02-23T08:12:06;95286.22;;;10.32;80.98
40946;BME280;55635;50.264;11.918;2023-02-23T08:14:47;95280.88;;;10.54;80.52
40946;BME280;55635;50.264;11.918;2023-02-23T08:17:28;95281.44;;;10.49;81.43
40946;BME280;55635;50.264;11.918;2023-02-23T08:20:10;95290.19;;;10.22;83.51
40946;BME280;55635;50.264;11.918;2023-02-23T08:22:55;95284.00;;;10.64;80.88
40946;BME280;55635;50.264;11.918;2023-02-23T08:25:36;95283.13;;;10.57;80.81
40946;BME280;55635;50.264;11.918;2023-02-23T08:28:17;95276.44;;;10.61;81.07
40946;BME280;55635;50.264;11.918;2023-02-23T08:30:58;95281.72;;;10.88;81.50
40946;BME280;55635;50.264;11.918;2023-02-23T08:33:39;95278.38;;;10.80;80.48
40946;BME280;55635;50.264;11.918;2023-02-23T08:36:20;95274.63;;;10.68;80.76
40946;BME280;55635;50.264;11.918;2023-02-23T08:39:02;95289.53;;;10.97;80.11
40946;BME280;55635;50.264;11.918;2023-02-23T08:41:42;95294.47;;;11.06;80.40
40946;BME280;55635;50.264;11.918;2023-02-23T08:44:24;95282.72;;;11.28;79.55
40946;BME280;55635;50.264;11.918;2023-02-23T08:47:04;95280.41;;;11.12;79.78
40946;BME280;55635;50.264;11.918;2023-02-23T08:49:49;95293.81;;;11.38;79.70
40946;BME280;55635;50.264;11.918;2023-02-23T08:52:30;95284.88;;;11.53;78.08
40946;BME280;55635;50.264;11.918;2023-02-23T08:55:12;95291.81;;;11.54;78.85
40946;BME280;55635;50.264;11.918;2023-02-23T08:57:56;95292.25;;;11.64;78.37
40946;BME280;55635;50.264;11.918;2023-02-23T09:00:37;95276.44;;;10.95;80.80
40946;BME280;55635;50.264;11.918;2023-02-23T09:03:20;95292.69;;;11.20;80.77
40946;BME280;55635;50.264;11.918;2023-02-23T09:06:11;95296.97;;;11.62;78.67
40946;BME280;55635;50.264;11.918;2023-02-23T09:08:54;95279.28;;;11.82;78.21
40946;BME280;55635;50.264;11.918;2023-02-23T09:11:36;95288.31;;;12.07;78.38
40946;BME280;55635;50.264;11.918;2023-02-23T09:14:17;95274.22;;;12.13;78.22
40946;BME280;55635;50.264;11.918;2023-02-23T09:16:58;95289.28;;;11.73;78.79
40946;BME280;55635;50.264;11.918;2023-02-23T09:19:39;95276.72;;;11.54;81.35
40946;BME280;55635;50.264;11.918;2023-02-23T09:22:20;95288.25;;;11.81;79.30
40946;BME280;55635;50.264;11.918;2023-02-23T09:25:01;95283.53;;;11.70;77.95
40946;BME280;55635;50.264;11.918;2023-02-23T09:27:42;95292.88;;;11.66;78.82
40946;BME280;55635;50.264;11.918;2023-02-23T09:30:22;95295.06;;;12.36;77.20
40946;BME280;55635;50.264;11.918;2023-02-23T09:33:03;95286.47;;;12.08;78.66
40946;BME280;55635;50.264;11.918;2023-02-23T09:35:47;95277.50;;;12.41;78.36
40946;BME280;55635;50.264;11.918;2023-02-23T09:38:28;95281.78;;;12.62;76.22
40946;BME280;55635;50.264;11.918;2023-02-23T09:47:49;95273.63;;;12.37;76.77
40946;BME280;55635;50.264;11.918;2023-02-23T09:50:38;95282.63;;;12.49;77.85
40946;BME280;55635;50.264;11.918;2023-02-23T09:53:30;95283.75;;;13.19;74.81
40946;BME280;55635;50.264;11.918;2023-02-23T09:56:37;95288.84;;;13.27;74.07
40946;BME280;55635;50.264;11.918;2023-02-23T09:59:21;95285.16;;;13.28;73.48
40946;BME280;55635;50.264;11.918;2023-02-23T10:02:36;95296.22;;;13.76;72.78
40946;BME280;55635;50.264;11.918;2023-02-23T10:05:20;95288.09;;;14.02;71.98
40946;BME280;55635;50.264;11.918;2023-02-23T10:17:28;95293.94;;;13.86;72.79
40946;BME280;55635;50.264;11.918;2023-02-23T10:24:06;95289.81;;;13.46;74.72
40946;BME280;55635;50.264;11.918;2023-02-23T10:26:57;95282.91;;;13.32;75.28
40946;BME280;55635;50.264;11.918;2023-02-23T10:29:55;95281.03;;;14.52;71.90
40946;BME280;55635;50.264;11.918;2023-02-23T10:32:40;95285.56;;;14.14;72.91
40946;BME280;55635;50.264;11.918;2023-02-23T10:35:28;95274.47;;;14.98;71.30
40946;BME280;55635;50.264;11.918;2023-02-23T10:38:19;95279.38;;;14.20;69.49
40946;BME280;55635;50.264;11.918;2023-02-23T10:41:00;95277.53;;;15.56;69.47
40946;BME280;55635;50.264;11.918;2023-02-23T10:43:43;95271.88;;;14.42;70.58
40946;BME280;55635;50.264;11.918;2023-02-23T10:46:34;95281.47;;;15.71;68.84
40946;BME280;55635;50.264;11.918;2023-02-23T10:49:21;95277.41;;;15.44;66.50
40946;BME280;55635;50.264;11.918;2023-02-23T10:52:04;95260.75;;;15.49;66.82
40946;BME280;55635;50.264;11.918;2023-02-23T10:54:49;95264.16;;;15.38;67.60
40946;BME280;55635;50.264;11.918;2023-02-23T10:57:34;95267.56;;;15.08;68.51
40946;BME280;55635;50.264;11.918;2023-02-23T11:03:31;95269.59;;;15.97;66.10
40946;BME280;55635;50.264;11.918;2023-02-23T11:06:30;95274.97;;;16.39;63.49
40946;BME280;55635;50.264;11.918;2023-02-23T11:09:31;95271.06;;;15.63;65.60
40946;BME280;55635;50.264;11.918;2023-02-23T11:12:26;95274.03;;;15.73;65.80
40946;BME280;55635;50.264;11.918;2023-02-23T11:15:27;95275.81;;;15.43;66.55
40946;BME280;55635;50.264;11.918;2023-02-23T11:18:21;95269.50;;;15.01;67.62
40946;BME280;55635;50.264;11.918;2023-02-23T11:21:11;95261.53;;;14.77;67.58
40946;BME280;55635;50.264;11.918;2023-02-23T11:23:57;95274.75;;;15.44;67.15
40946;BME280;55635;50.264;11.918;2023-02-23T11:26:42;95260.03;;;15.90;64.04
40946;BME280;55635;50.264;11.918;2023-02-23T11:29:37;95251.16;;;16.19;62.45
40946;BME280;55635;50.264;11.918;2023-02-23T11:32:30;95254.00;;;15.94;65.59
40946;BME280;55635;50.264;11.918;2023-02-23T11:37:58;95249.50;;;15.76;65.10
40946;BME280;55635;50.264;11.918;2023-02-23T11:40:39;95249.63;;;15.82;65.44
40946;BME280;55635;50.264;11.918;2023-02-23T11:43:20;95259.56;;;14.09;69.70
40946;BME280;55635;50.264;11.918;2023-02-23T11:46:02;95248.47;;;14.12;71.84
40946;BME280;55635;50.264;11.918;2023-02-23T11:48:49;95259.88;;;14.19;70.83
40946;BME280;55635;50.264;11.918;2023-02-23T11:51:40;95248.28;;;14.07;74.54
40946;BME280;55635;50.264;11.918;2023-02-23T11:54:32;95244.47;;;13.97;72.01
40946;BME280;55635;50.264;11.918;2023-02-23T11:57:24;95249.59;;;14.54;69.22
40946;BME280;55635;50.264;11.918;2023-02-23T12:00:24;95237.72;;;14.93;67.82
40946;BME280;55635;50.264;11.918;2023-02-23T12:03:16;95242.50;;;15.27;67.97
40946;BME280;55635;50.264;11.918;2023-02-23T12:05:58;95236.66;;;14.58;68.43
40946;BME280;55635;50.264;11.918;2023-02-23T12:08:40;95242.00;;;14.76;69.40
40946;BME280;55635;50.264;11.918;2023-02-23T12:11:25;95238.53;;;14.76;69.74
40946;BME280;55635;50.264;11.918;2023-02-23T12:14:29;95235.44;;;14.97;67.85
40946;BME280;55635;50.264;11.918;2023-02-23T12:17:48;95241.09;;;15.07;67.55
40946;BME280;55635;50.264;11.918;2023-02-23T12:20:37;95243.13;;;15.05;66.97
40946;BME280;55635;50.264;11.918;2023-02-23T12:23:28;95243.00;;;15.18;67.23
40946;BME280;55635;50.264;11.918;2023-02-23T12:26:17;95227.88;;;14.94;69.06
40946;BME280;55635;50.264;11.918;2023-02-23T12:29:17;95233.78;;;14.78;69.33
40946;BME280;55635;50.264;11.918;2023-02-23T12:32:13;95243.13;;;15.05;67.23
40946;BME280;55635;50.264;11.918;2023-02-23T12:35:07;95236.63;;;15.37;67.36
40946;BME280;55635;50.264;11.918;2023-02-23T12:38:14;95232.56;;;15.35;65.27
40946;BME280;55635;50.264;11.918;2023-02-23T12:41:09;95226.34;;;15.04;69.00
40946;BME280;55635;50.264;11.918;2023-02-23T12:46:50;95231.25;;;14.64;69.13
40946;BME280;55635;50.264;11.918;2023-02-23T12:49:50;95220.28;;;14.73;68.55
40946;BME280;55635;50.264;11.918;2023-02-23T13:02:48;95214.22;;;14.84;67.13
40946;BME280;55635;50.264;11.918;2023-02-23T13:05:31;95221.56;;;15.06;67.48
40946;BME280;55635;50.264;11.918;2023-02-23T13:12:13;95222.66;;;15.35;65.08
40946;BME280;55635;50.264;11.918;2023-02-23T13:18:46;95218.09;;;15.06;64.53
40946;BME280;55635;50.264;11.918;2023-02-23T13:22:23;95218.53;;;14.85;65.15
40946;BME280;55635;50.264;11.918;2023-02-23T13:24:41;95213.19;;;14.85;67.40
40946;BME280;55635;50.264;11.918;2023-02-23T13:27:39;95214.38;;;14.89;65.16
40946;BME280;55635;50.264;11.918;2023-02-23T13:30:22;95214.59;;;14.87;65.28
40946;BME280;55635;50.264;11.918;2023-02-23T13:33:26;95210.38;;;14.80;66.38
40946;BME280;55635;50.264;11.918;2023-02-23T13:36:07;95208.44;;;14.87;67.07
40946;BME280;55635;50.264;11.918;2023-02-23T13:39:10;95209.31;;;14.31;67.32
40946;BME280;55635;50.264;11.918;2023-02-23T13:42:29;95209.59;;;14.54;67.98
40946;BME280;55635;50.264;11.918;2023-02-23T13:49:13;95210.44;;;14.24;68.41
40946;BME280;55635;50.264;11.918;2023-02-23T13:52:08;95214.28;;;14.03;69.63
40946;BME280;55635;50.264;11.918;2023-02-23T13:54:55;95208.34;;;14.01;71.10
40946;BME280;55635;50.264;11.918;2023-02-23T13:57:38;95208.78;;;13.98;70.73
40946;BME280;55635;50.264;11.918;2023-02-23T14:00:23;95198.88;;;14.05;68.90
40946;BME280;55635;50.264;11.918;2023-02-23T14:03:05;95203.78;;;14.08;69.47
40946;BME280;55635;50.264;11.918;2023-02-23T14:05:54;95203.16;;;14.12;68.57
40946;BME280;55635;50.264;11.918;2023-02-23T14:08:37;95199.28;;;14.08;69.33
40946;BME280;55635;50.264;11.918;2023-02-23T14:11:51;95204.56;;;14.15;69.03
40946;BME280;55635;50.264;11.918;2023-02-23T14:23:27;95198.44;;;14.39;69.86
40946;BME280;55635;50.264;11.918;2023-02-23T14:26:36;95198.75;;;14.49;68.96
40946;BME280;55635;50.264;11.918;2023-02-23T14:29:26;95193.19;;;14.51;68.62
40946;BME280;55635;50.264;11.918;2023-02-23T14:37:36;95192.75;;;14.29;68.93
40946;BME280;55635;50.264;11.918;2023-02-23T14:40:31;95193.47;;;14.18;68.52
40946;BME280;55635;50.264;11.918;2023-02-23T14:43:38;95198.56;;;14.19;69.05
40946;BME280;55635;50.264;11.918;2023-02-23T14:46:23;95184.84;;;14.16;68.36
40946;BME280;55635;50.264;11.918;2023-02-23T14:49:13;95198.59;;;14.13;69.48
40946;BME280;55635;50.264;11.918;2023-02-23T14:52:20;95196.16;;;13.87;71.90
40946;BME280;55635;50.264;11.918;2023-02-23T14:57:57;95197.41;;;13.46;73.52
40946;BME280;55635;50.264;11.918;2023-02-23T15:00:41;95185.25;;;13.19;74.33
40946;BME280;55635;50.264;11.918;2023-02-23T15:03:23;95200.56;;;13.30;74.22
40946;BME280;55635;50.264;11.918;2023-02-23T15:06:04;95199.22;;;13.52;72.88
40946;BME280;55635;50.264;11.918;2023-02-23T15:08:45;95185.47;;;13.55;72.04
40946;BME280;55635;50.264;11.918;2023-02-23T15:11:27;95190.50;;;13.70;72.08
40946;BME280;55635;50.264;11.918;2023-02-23T15:14:14;95188.44;;;13.79;72.02
40946;BME280;55635;50.264;11.918;2023-02-23T15:16:57;95201.53;;;13.80;71.70
40946;BME280;55635;50.264;11.918;2023-02-23T15:19:37;95196.47;;;13.72;71.87
40946;BME280;55635;50.264;11.918;2023-02-23T15:22:34;95191.25;;;13.84;72.09
40946;BME280;55635;50.264;11.918;2023-02-23T15:25:24;95200.31;;;13.76;71.95
40946;BME280;55635;50.264;11.918;2023-02-23T15:28:27;95200.09;;;13.78;72.11
40946;BME280;55635;50.264;11.918;2023-02-23T15:31:09;95199.50;;;13.76;71.69
40946;BME280;55635;50.264;11.918;2023-02-23T15:33:51;95188.13;;;13.55;71.81
40946;BME280;55635;50.264;11.918;2023-02-23T15:36:36;95200.03;;;13.53;72.56
40946;BME280;55635;50.264;11.918;2023-02-23T15:39:36;95191.69;;;13.43;72.17
40946;BME280;55635;50.264;11.918;2023-02-23T15:42:55;95197.03;;;13.43;71.91
40946;BME280;55635;50.264;11.918;2023-02-23T15:45:58;95202.63;;;13.28;72.21
40946;BME280;55635;50.264;11.918;2023-02-23T15:48:46;95185.38;;;13.37;72.96
40946;BME280;55635;50.264;11.918;2023-02-23T15:51:38;95189.41;;;13.46;72.61
40946;BME280;55635;50.264;11.918;2023-02-23T15:54:33;95184.72;;;13.48;72.60
40946;BME280;55635;50.264;11.918;2023-02-23T15:57:26;95188.72;;;13.26;73.88
40946;BME280;55635;50.264;11.918;2023-02-23T16:00:19;95188.34;;;13.16;73.86
40946;BME280;55635;50.264;11.918;2023-02-23T16:03:28;95181.81;;;13.12;75.25
40946;BME280;55635;50.264;11.918;2023-02-23T16:06:29;95175.88;;;13.03;75.69
40946;BME280;55635;50.264;11.918;2023-02-23T16:12:09;95184.38;;;12.74;76.73
40946;BME280;55635;50.264;11.918;2023-02-23T16:15:39;95173.84;;;12.28;78.73
40946;BME280;55635;50.264;11.918;2023-02-23T16:18:09;95173.66;;;12.10;79.59
40946;BME280;55635;50.264;11.918;2023-02-23T16:20:54;95176.91;;;12.06;80.52
40946;BME280;55635;50.264;11.918;2023-02-23T16:23:46;95174.03;;;12.20;80.29